createdAt,value
2018-07-09T06:00:22.986Z,46.10
2018-07-09T06:02:52.401Z,46.20
2018-07-09T06:05:21.783Z,46.60
2018-07-09T06:07:51.090Z,48.10
2018-07-09T06:10:20.234Z,49.80
2018-07-09T06:12:49.373Z,51.50
2018-07-09T06:15:18.407Z,51.60
2018-07-09T06:17:47.385Z,51.00
2018-07-09T06:20:16.615Z,52.40
2018-07-09T06:22:45.750Z,51.90
2018-07-09T06:25:14.761Z,51.70
2018-07-09T06:27:43.913Z,52.60
2018-07-09T06:30:12.985Z,52.60
2018-07-09T06:32:42.141Z,52.80
2018-07-09T06:35:11.344Z,52.50
2018-07-09T06:37:40.478Z,53.40
2018-07-09T06:40:10.551Z,53.70
2018-07-09T06:42:39.869Z,54.10
2018-07-09T06:45:09.016Z,54.10
2018-07-09T06:47:38.101Z,54.80
2018-07-09T06:50:07.376Z,54.30
2018-07-09T06:52:36.419Z,53.70
2018-07-09T06:55:05.905Z,53.10
2018-07-09T06:57:35.106Z,53.30
2018-07-09T07:00:04.197Z,52.70
2018-07-09T07:02:33.235Z,52.00
2018-07-09T07:05:02.249Z,51.40
2018-07-09T07:07:31.195Z,51.10
2018-07-09T07:10:00.230Z,50.40
2018-07-09T07:12:29.324Z,49.70
2018-07-09T07:14:58.408Z,49.50
2018-07-09T07:17:27.472Z,49.30
2018-07-09T07:19:56.627Z,49.20
2018-07-09T07:22:25.752Z,48.90
2018-07-09T07:24:54.899Z,48.00
2018-07-09T07:27:23.948Z,47.80
2018-07-09T07:29:53.075Z,47.90
2018-07-09T07:32:22.247Z,47.80
2018-07-09T07:34:51.433Z,48.20
2018-07-09T07:37:20.468Z,48.10
2018-07-09T07:39:49.529Z,47.30
2018-07-09T07:42:18.777Z,47.80
2018-07-09T07:44:47.868Z,47.00
2018-07-09T07:47:17.036Z,46.60
2018-07-09T07:49:46.125Z,46.50
2018-07-09T07:52:15.462Z,46.50
2018-07-09T07:54:44.482Z,46.80
2018-07-09T07:57:13.497Z,46.60
2018-07-09T07:59:42.574Z,45.70
2018-07-09T08:02:11.660Z,45.90
2018-07-09T08:04:40.760Z,46.10
2018-07-09T08:07:09.863Z,45.90
2018-07-09T08:09:39.038Z,45.90
2018-07-09T08:13:00.558Z,45.50
2018-07-09T08:14:37.218Z,45.70
2018-07-09T08:17:06.386Z,44.80
2018-07-09T08:19:35.501Z,45.10
2018-07-09T08:22:04.670Z,44.50
2018-07-09T08:24:33.756Z,44.30
2018-07-09T08:27:02.903Z,44.30
2018-07-09T08:29:31.936Z,44.60
2018-07-09T08:32:01.083Z,44.40
2018-07-09T08:34:30.192Z,44.20
2018-07-09T08:36:59.333Z,44.10
2018-07-09T08:39:28.525Z,44.60
2018-07-09T08:41:57.558Z,44.70
2018-07-09T08:44:26.785Z,44.60
2018-07-09T08:46:55.842Z,45.30
2018-07-09T08:49:24.918Z,44.60
2018-07-09T08:51:54.054Z,45.10
2018-07-09T08:54:23.162Z,44.00
2018-07-09T08:56:52.277Z,44.30
2018-07-09T08:59:21.350Z,43.10
2018-07-09T09:01:50.514Z,43.20
2018-07-09T09:04:19.529Z,42.90
2018-07-09T09:06:48.636Z,42.80
2018-07-09T09:09:17.680Z,42.70
2018-07-09T09:11:46.832Z,42.40
2018-07-09T09:14:15.921Z,42.00
2018-07-09T09:16:45.045Z,41.70
2018-07-09T09:19:14.086Z,41.20
2018-07-09T09:21:43.108Z,41.50
2018-07-09T09:24:12.193Z,40.70
2018-07-09T09:26:41.636Z,40.40
2018-07-09T09:29:10.853Z,40.70
2018-07-09T09:31:39.942Z,40.40
2018-07-09T09:34:08.991Z,40.60
2018-07-09T09:36:38.185Z,40.80
2018-07-09T09:39:08.149Z,40.50
2018-07-09T09:41:37.385Z,40.30
2018-07-09T09:44:06.552Z,40.10
2018-07-09T09:46:35.617Z,39.40
2018-07-09T09:49:04.697Z,40.10
2018-07-09T09:51:33.846Z,40.00
2018-07-09T09:54:03.118Z,39.60
2018-07-09T09:56:32.229Z,40.40
2018-07-09T09:59:01.431Z,39.70
2018-07-09T10:01:30.551Z,39.00
2018-07-09T10:03:59.615Z,39.60
2018-07-09T10:06:28.743Z,39.40
2018-07-09T10:08:57.836Z,39.40
2018-07-09T10:11:26.950Z,39.40
2018-07-09T10:13:56.074Z,39.40
2018-07-09T10:16:26.004Z,39.30
2018-07-09T10:18:55.108Z,39.40
2018-07-09T10:21:24.304Z,39.30
2018-07-09T10:23:53.291Z,39.80
2018-07-09T10:26:22.459Z,40.20
2018-07-09T10:28:51.638Z,39.60
2018-07-09T10:31:20.763Z,39.40
2018-07-09T10:33:49.889Z,39.70
2018-07-09T10:36:19.109Z,39.40
2018-07-09T10:38:48.230Z,38.90
2018-07-09T10:41:17.296Z,38.70
2018-07-09T10:43:46.390Z,38.80
2018-07-09T10:46:15.556Z,38.60
2018-07-09T10:48:44.715Z,38.60
2018-07-09T10:51:13.724Z,38.60
2018-07-09T10:53:42.845Z,38.10
2018-07-09T10:56:12.058Z,38.10
2018-07-09T10:58:41.030Z,38.60
2018-07-09T11:01:10.214Z,38.70
2018-07-09T11:03:39.405Z,39.30
2018-07-09T11:06:08.451Z,38.60
2018-07-09T11:08:37.576Z,38.90
2018-07-09T11:11:06.831Z,38.50
2018-07-09T11:13:35.935Z,38.10
2018-07-09T11:16:05.253Z,38.00
2018-07-09T11:18:34.345Z,38.40
2018-07-09T11:21:03.351Z,38.10
2018-07-09T11:23:32.446Z,38.10
2018-07-09T11:26:01.408Z,38.20
2018-07-09T11:28:30.477Z,38.80
2018-07-09T11:30:59.648Z,38.30
2018-07-09T11:33:28.864Z,38.40
2018-07-09T11:35:57.956Z,38.00
2018-07-09T11:38:26.987Z,37.90
2018-07-09T11:40:56.067Z,37.90
2018-07-09T11:43:25.269Z,38.00
2018-07-09T11:45:54.279Z,38.60
2018-07-09T11:48:23.405Z,38.70
2018-07-09T11:57:09.993Z,38.10
2018-07-09T11:59:39.503Z,38.40
2018-07-09T12:02:08.969Z,38.50
2018-07-09T12:04:38.309Z,38.70
2018-07-09T12:07:07.921Z,38.60
2018-07-09T12:09:37.134Z,39.50
2018-07-09T12:12:06.654Z,38.70
2018-07-09T12:14:35.841Z,38.90
2018-07-09T12:17:04.960Z,39.00
2018-07-09T12:19:34.120Z,38.70
2018-07-09T12:22:03.321Z,40.00
2018-07-09T12:24:32.413Z,39.70
2018-07-09T12:27:02.459Z,38.70
2018-07-09T12:29:31.504Z,38.90
2018-07-09T12:32:00.632Z,39.80
2018-07-09T12:34:29.764Z,38.20
2018-07-09T12:36:58.848Z,38.10
2018-07-09T12:39:27.936Z,38.20
2018-07-09T12:41:57.234Z,38.00
2018-07-09T12:44:26.361Z,39.20
2018-07-09T12:46:55.392Z,37.50
2018-07-09T12:49:24.364Z,37.00
2018-07-09T12:51:53.504Z,37.60
2018-07-09T12:54:22.719Z,37.00
2018-07-09T12:56:51.965Z,37.60
2018-07-09T12:59:21.120Z,37.10
2018-07-09T13:01:50.469Z,37.50
2018-07-09T13:04:19.526Z,37.70
2018-07-09T13:06:48.595Z,37.90
2018-07-09T13:09:17.628Z,37.90
2018-07-09T13:11:46.775Z,37.90
2018-07-09T13:14:15.902Z,37.70
2018-07-09T13:16:44.923Z,38.00
2018-07-09T13:19:14.005Z,37.80
2018-07-09T13:21:43.059Z,38.00
2018-07-09T13:24:12.282Z,37.70
2018-07-09T13:26:41.147Z,37.70
2018-07-09T13:29:10.409Z,37.70
2018-07-09T13:31:39.384Z,38.00
2018-07-09T13:34:08.744Z,38.50
2018-07-09T13:36:37.866Z,37.80
2018-07-09T13:39:07.845Z,38.10
2018-07-09T13:41:36.978Z,38.40
2018-07-09T13:44:06.043Z,37.90
2018-07-09T13:46:35.363Z,37.80
2018-07-09T13:49:04.566Z,37.60
2018-07-09T13:51:33.745Z,37.80
2018-07-09T13:54:02.910Z,37.70
2018-07-09T13:56:31.992Z,37.00
2018-07-09T13:59:01.043Z,37.10
2018-07-09T14:01:30.159Z,36.90
2018-07-09T14:03:59.167Z,38.10
2018-07-09T14:06:28.282Z,38.30
2018-07-09T14:08:58.160Z,37.40
2018-07-09T14:11:27.244Z,37.20
2018-07-09T14:13:56.566Z,36.90
2018-07-09T14:16:25.637Z,36.90
2018-07-09T14:18:54.914Z,37.60
2018-07-09T14:21:24.133Z,37.20
2018-07-09T14:23:53.302Z,36.50
2018-07-09T14:26:22.464Z,36.90
2018-07-09T14:28:51.623Z,37.40
2018-07-09T14:31:20.784Z,36.40
2018-07-09T14:33:49.901Z,36.80
2018-07-09T14:36:19.062Z,37.20
2018-07-09T14:38:48.072Z,37.00
2018-07-09T14:41:17.199Z,36.70
2018-07-09T14:43:46.191Z,37.20
2018-07-09T14:46:15.437Z,37.30
2018-07-09T14:48:44.526Z,37.30
2018-07-09T14:51:13.683Z,37.20
2018-07-09T14:53:42.702Z,37.40
2018-07-09T14:56:11.742Z,37.90
2018-07-09T14:58:40.862Z,37.50
2018-07-09T15:01:10.157Z,37.70
2018-07-09T15:03:39.332Z,37.70
2018-07-09T15:06:08.419Z,37.70
2018-07-09T15:08:37.587Z,37.80
2018-07-09T15:11:06.991Z,38.30
2018-07-09T15:13:36.131Z,37.80
2018-07-09T15:16:05.459Z,37.80
2018-07-09T15:18:34.480Z,37.40
2018-07-09T15:21:03.602Z,37.20
2018-07-09T15:23:32.674Z,37.00
2018-07-09T15:26:01.804Z,37.30
2018-07-09T15:28:30.889Z,37.70
2018-07-09T15:31:00.024Z,37.80
2018-07-09T15:33:28.990Z,37.90
2018-07-09T15:35:58.247Z,37.70
2018-07-09T15:38:27.390Z,37.80
2018-07-09T15:40:56.545Z,37.80
2018-07-09T15:43:34.370Z,37.90
2018-07-09T15:46:03.511Z,37.90
2018-07-09T15:48:32.669Z,38.00
2018-07-09T15:51:01.841Z,38.00
2018-07-09T15:53:30.986Z,38.00
2018-07-09T15:56:00.111Z,38.40
2018-07-09T15:58:29.151Z,38.00
2018-07-09T16:00:58.570Z,37.80
2018-07-09T16:03:27.684Z,38.10
2018-07-09T16:05:56.630Z,37.50
2018-07-09T16:08:25.771Z,37.50
2018-07-09T16:10:54.921Z,37.60
2018-07-09T16:13:24.151Z,37.60
2018-07-09T16:15:53.196Z,37.60
2018-07-09T16:18:22.424Z,37.50
2018-07-09T16:20:51.617Z,37.50
2018-07-09T16:23:20.844Z,37.50
2018-07-09T16:25:49.998Z,37.50
2018-07-09T16:28:19.305Z,37.70
2018-07-09T16:30:48.354Z,37.60
2018-07-09T16:33:17.477Z,37.50
2018-07-09T16:35:46.578Z,37.50
2018-07-09T16:38:15.786Z,37.60
2018-07-09T16:40:44.910Z,37.70
2018-07-09T16:43:13.847Z,37.60
2018-07-09T16:45:43.604Z,37.80
2018-07-09T16:48:12.709Z,38.40
2018-07-09T16:50:42.113Z,37.90
2018-07-09T16:53:11.271Z,38.30
2018-07-09T16:55:40.257Z,38.40
2018-07-09T16:58:09.353Z,38.40
2018-07-09T17:00:38.509Z,38.40
2018-07-09T17:03:07.770Z,38.40
2018-07-09T17:05:36.887Z,38.40
2018-07-09T17:08:06.789Z,38.40
2018-07-09T17:10:35.908Z,38.40
2018-07-09T17:13:05.028Z,38.40
2018-07-09T17:15:34.410Z,38.40
2018-07-09T17:18:03.628Z,39.00
2018-07-09T17:20:32.862Z,38.40
2018-07-09T17:23:02.064Z,38.40
2018-07-09T17:25:31.320Z,38.40
2018-07-09T17:28:00.457Z,38.40
2018-07-09T17:30:29.690Z,38.40
2018-07-09T17:32:58.789Z,38.40
2018-07-09T17:35:27.986Z,38.40
2018-07-09T17:37:57.152Z,38.50
2018-07-09T17:40:26.451Z,38.50
2018-07-09T17:42:55.478Z,38.50
2018-07-09T17:45:24.650Z,38.50
2018-07-09T17:47:53.748Z,38.50
2018-07-09T17:50:23.063Z,38.50
2018-07-09T17:52:52.087Z,38.50
2018-07-09T17:55:21.527Z,38.50
2018-07-09T17:57:50.616Z,38.50
2018-07-09T18:00:19.755Z,38.50
2018-07-09T18:02:49.074Z,38.50
2018-07-09T18:05:18.224Z,38.50
2018-07-09T18:07:47.368Z,38.50
2018-07-09T18:10:16.512Z,38.50
2018-07-09T18:12:45.519Z,38.50
2018-07-09T18:15:14.696Z,38.50
2018-07-09T18:17:43.793Z,38.60
2018-07-09T18:20:12.916Z,38.50
2018-07-09T18:22:42.040Z,38.60
2018-07-09T18:25:11.319Z,38.70
2018-07-09T18:27:40.343Z,38.70
2018-07-09T18:30:09.501Z,38.80
2018-07-09T18:32:38.742Z,38.80
2018-07-09T18:35:07.835Z,38.90
2018-07-09T18:37:37.103Z,38.90
2018-07-09T18:40:06.242Z,38.90
2018-07-09T18:42:35.471Z,38.90
2018-07-09T18:45:04.572Z,39.00
2018-07-09T18:47:33.879Z,39.00
2018-07-09T18:50:03.080Z,38.90
2018-07-09T18:52:32.219Z,39.00
2018-07-09T18:55:01.295Z,39.00
2018-07-09T18:57:30.492Z,39.10
2018-07-09T18:59:59.541Z,39.10
2018-07-09T19:02:28.668Z,39.10
2018-07-09T19:04:57.776Z,39.10
2018-07-09T19:07:27.161Z,39.10
2018-07-09T19:09:56.242Z,39.20
2018-07-09T19:12:30.522Z,39.30
2018-07-09T19:14:59.605Z,39.20
2018-07-09T19:17:38.377Z,39.30
2018-07-09T19:20:16.942Z,39.30
2018-07-09T19:22:44.668Z,39.30
2018-07-09T19:25:12.455Z,39.30
2018-07-09T19:27:40.234Z,39.40
2018-07-09T19:30:08.020Z,39.40
2018-07-09T19:32:36.016Z,39.40
2018-07-09T19:35:03.770Z,39.40
2018-07-09T19:37:31.797Z,39.40
2018-07-09T19:39:59.475Z,39.40
2018-07-09T19:42:27.518Z,39.40
2018-07-09T19:44:55.275Z,39.50
2018-07-09T19:47:23.029Z,39.40
2018-07-09T19:49:50.704Z,39.50
2018-07-09T19:52:18.534Z,39.50
2018-07-09T19:54:46.305Z,39.50
2018-07-09T19:57:14.164Z,39.50
2018-07-09T19:59:41.863Z,39.60
2018-07-09T20:02:09.506Z,39.60
2018-07-09T20:04:37.232Z,39.60
2018-07-09T20:07:05.098Z,39.60
2018-07-09T20:09:36.963Z,39.60
2018-07-09T20:12:08.837Z,39.60
2018-07-09T20:14:40.719Z,39.60
2018-07-09T20:17:10.400Z,39.70
2018-07-09T20:19:38.227Z,39.70
2018-07-09T20:22:05.891Z,39.60
2018-07-09T20:24:33.749Z,39.60
2018-07-09T20:27:01.460Z,39.70
2018-07-09T20:29:29.269Z,39.60
2018-07-09T20:31:57.144Z,39.80
2018-07-09T20:34:25.003Z,39.70
2018-07-09T20:36:53.308Z,39.70
2018-07-09T20:39:21.063Z,39.80
2018-07-09T20:41:48.975Z,39.80
2018-07-09T20:44:16.820Z,39.80
2018-07-09T20:46:44.669Z,39.80
2018-07-09T20:49:12.489Z,39.80
2018-07-09T20:51:40.225Z,39.80
2018-07-09T20:54:08.085Z,39.80
2018-07-09T20:56:35.860Z,39.80
2018-07-09T20:59:03.689Z,39.80
2018-07-09T21:01:31.485Z,39.80
2018-07-09T21:04:03.550Z,39.80
2018-07-09T21:06:31.527Z,39.90
2018-07-09T21:08:59.355Z,39.90
2018-07-09T21:11:27.060Z,39.90
2018-07-09T21:13:54.834Z,40.00
2018-07-09T21:16:22.928Z,39.90
2018-07-09T21:18:50.549Z,39.90
2018-07-09T21:21:18.516Z,40.00
2018-07-09T21:23:46.300Z,40.00
2018-07-09T21:26:14.064Z,40.00
2018-07-09T21:28:41.814Z,40.00
2018-07-09T21:31:09.431Z,40.10
2018-07-09T21:33:37.189Z,40.00
2018-07-09T21:36:05.067Z,40.10
2018-07-09T21:38:33.005Z,40.00
2018-07-09T21:41:01.239Z,40.10
2018-07-09T21:43:29.048Z,40.10
2018-07-09T21:45:56.706Z,40.10
2018-07-09T21:48:29.794Z,40.10
2018-07-09T21:50:53.354Z,40.10
2018-07-09T21:53:21.968Z,40.10
2018-07-09T21:55:49.851Z,40.10
2018-07-09T21:58:17.572Z,40.10
2018-07-09T22:00:45.418Z,40.00
2018-07-09T22:03:13.074Z,40.10
2018-07-09T22:05:40.824Z,40.10
2018-07-09T22:08:08.737Z,40.10
2018-07-09T22:10:36.594Z,40.10
2018-07-09T22:13:04.440Z,40.10
2018-07-09T22:15:32.358Z,40.10
2018-07-09T22:18:00.322Z,40.10
2018-07-09T22:20:28.159Z,40.20
2018-07-09T22:22:55.786Z,40.20
2018-07-09T22:25:23.576Z,40.20
2018-07-09T22:27:51.302Z,40.20
2018-07-09T22:30:25.958Z,40.20
2018-07-09T22:32:54.942Z,40.20
2018-07-09T22:35:24.181Z,40.20
2018-07-09T22:37:53.316Z,40.30
2018-07-09T22:40:22.572Z,40.20
2018-07-09T22:42:51.891Z,40.30
2018-07-09T22:45:20.958Z,40.20
2018-07-09T22:47:50.178Z,40.20
2018-07-09T22:50:19.348Z,40.20
2018-07-09T22:52:48.742Z,40.30
2018-07-09T22:55:26.614Z,40.30
2018-07-09T22:57:55.803Z,40.30
2018-07-09T23:00:24.935Z,40.30
2018-07-09T23:03:02.830Z,40.30
2018-07-09T23:05:31.898Z,40.40
2018-07-09T23:08:01.131Z,40.30
2018-07-09T23:10:39.154Z,40.40
2018-07-09T23:13:12.160Z,40.40
2018-07-09T23:15:50.468Z,40.40
2018-07-09T23:18:29.508Z,40.40
2018-07-09T23:21:07.663Z,40.40
2018-07-09T23:23:35.542Z,40.40
2018-07-09T23:26:03.384Z,40.40
2018-07-09T23:28:31.184Z,40.30
2018-07-09T23:30:58.988Z,40.40
2018-07-09T23:33:27.119Z,40.40
2018-07-09T23:35:54.994Z,40.40
2018-07-09T23:38:22.930Z,40.40
2018-07-09T23:40:50.799Z,40.40
2018-07-09T23:43:18.507Z,40.40
2018-07-09T23:45:46.369Z,40.40
2018-07-09T23:48:14.176Z,40.40
2018-07-09T23:50:41.989Z,40.40
2018-07-09T23:53:09.860Z,40.50
2018-07-09T23:55:38.939Z,40.40
2018-07-09T23:58:16.876Z,40.40
